Airport ICAO


14:36 UTC

7°C

Clear skies


An affordable passengers' Moving Map for your aircraft. Made for the iPad and the iPhone
More information here

EGKK Gatwick


London UNITED KINGDOM   VFR CAVOK


METAR EGKK 241420Z 33004KT 290V010 CAVOK 07/04 Q1011 0h16min

TAF EGKK 241053Z 2412/2518 29004KT 9999 SCT040 PROB30 TEMPO 2504/2507 8000 -RA BKN012 BECMG 2509/2512 30014KT 3h43min





NOTAMS

OPEN